05:02
Airports
Links
Donate
Help keep this website running!
PayPal
Bitcoin
METAR
KFRG 180453Z AUTO 08003KT 10SM CLR 00/M05 A3021 RMK AO2 SLP230 T00001050 400171017
Current Weather Conditions at KFRG
VFR 04:53:00 18-12-17
Automated station, no observer
Altimeter:30.21 hg
Temp:0.0°c 32°f
Dew point:-5.0°c 23°f
Wind:3 knots, 3.5 mph, 2 m/s, from 80°
Visibility:10.0 statute miles
(CLR) Clear
Past METAR reports
VFR 03:53:00 18-12-17
Automated station, no observer
Altimeter:30.22 hg
Temp:0.0°c 32°f
Dew point:-4.4°c 25°f
Wind:4 knots, 4.6 mph, 2 m/s, from 90°
Visibility:10.0 statute miles
12000(SCT) Scattered
KFRG 180353Z AUTO 09004KT 10SM SCT120 00/M04 A3022 RMK AO2 SLP234 T00001044
VFR 02:53:00 18-12-17
Automated station, no observer
Altimeter:30.25 hg
Temp:0.6°c 32°f
Dew point:-3.9°c 27°f
Wind:3 knots, 3.5 mph, 2 m/s, from 90°
Visibility:10.0 statute miles
11000(OVC) Overcast
KFRG 180253Z AUTO 09003KT 10SM OVC110 01/M04 A3025 RMK AO2 SLP243 T00061039 58008
VFR 01:53:00 18-12-17
Automated station, no observer
Altimeter:30.26 hg
Temp:0.0°c 32°f
Dew point:-4.4°c 25°f
Wind:3 knots, 3.5 mph, 2 m/s, from 90°
Visibility:10.0 statute miles
12000(SCT) Scattered
2000(FEW) A few
KFRG 180153Z AUTO 09003KT 10SM FEW020 SCT120 00/M04 A3026 RMK AO2 SLP247 T00001044
VFR 00:53:00 18-12-17
Automated station, no observer
Altimeter:30.28 hg
Temp:0.0°c 32°f
Dew point:-5.0°c 23°f
Wind:0 knots, 0 mph, 0 m/s,
Variable direction
Visibility:10.0 statute miles
11000(BKN) Broken
2100(SCT) Scattered
KFRG 180053Z AUTO 00000KT 10SM SCT021 BKN110 00/M05 A3028 RMK AO2 SLP254 T00001050
VFR 23:53:00 17-12-17
Automated station, no observer
Altimeter:30.27 hg
Temp:0.0°c 32°f
Dew point:-4.4°c 25°f
Wind:0 knots, 0 mph, 0 m/s,
Variable direction
Visibility:10.0 statute miles
(CLR) Clear
KFRG 172353Z AUTO 00000KT 10SM CLR 00/M04 A3027 RMK AO2 SLP251 T00001044 10017 20000 53006
TAF
No TAF for KFRG
Forecast at KFRG
No Forecast Reports for KFRG